Time;durP1;ratioP1;P1;durP2;ratioP2;P2;SDS_P1;SDS_P2;PMS_P1;PMS_P2;Temp;Humidity;BMP_temperature;BMP_pressure;BME280_temperature;BME280_humidity;BME280_pressure;Samples;Min_cycle;Max_cycle;Signal;HPM_P1;HPM_P2
2022/01/04 00:00:54;;;;;;;7.15;3.70;;;8.40;99.90;;;;;;4200549;28;20041;-79
2022/01/04 00:02:56;;;;;;;6.72;3.50;;;8.40;99.90;;;;;;4193771;28;20055;-80
2022/01/04 00:04:58;;;;;;;5.20;3.17;;;8.40;99.90;;;;;;4210298;28;20040;-79
2022/01/04 00:07:00;;;;;;;5.57;3.30;;;8.40;99.90;;;;;;4207171;28;20056;-77
2022/01/04 00:09:04;;;;;;;6.75;3.85;;;8.40;99.90;;;;;;4209713;28;20045;-80
2022/01/04 00:11:17;;;;;;;6.77;3.57;;;8.40;99.90;;;;;;4209662;28;20045;-79
2022/01/04 00:13:25;;;;;;;5.72;3.13;;;8.40;99.90;;;;;;4209777;28;20045;-81
2022/01/04 00:15:27;;;;;;;5.80;2.90;;;8.30;99.90;;;;;;4193282;28;20732;-78
2022/01/04 00:17:29;;;;;;;7.63;2.72;;;8.30;99.90;;;;;;4186692;28;20606;-81
2022/01/04 00:19:31;;;;;;;6.32;2.80;;;8.30;99.90;;;;;;4183241;28;20081;-79
2022/01/04 00:21:34;;;;;;;6.63;3.15;;;8.30;99.90;;;;;;4192725;28;20056;-79
2022/01/04 00:23:36;;;;;;;6.22;2.47;;;8.40;99.90;;;;;;4181669;28;20088;-78
2022/01/04 00:25:38;;;;;;;6.90;2.20;;;8.40;99.90;;;;;;4197652;28;20049;-80
2022/01/04 00:27:40;;;;;;;3.13;2.03;;;8.30;99.90;;;;;;4193426;28;20084;-80
2022/01/04 00:29:42;;;;;;;7.60;2.70;;;8.30;99.90;;;;;;4198326;28;20118;-81
2022/01/04 00:31:44;;;;;;;4.30;2.53;;;8.30;99.90;;;;;;4182363;28;20127;-79
2022/01/04 00:33:46;;;;;;;5.57;2.85;;;8.30;99.90;;;;;;4198690;28;20040;-80
2022/01/04 00:35:48;;;;;;;3.45;2.65;;;8.30;99.90;;;;;;4195449;28;20071;-81
2022/01/04 00:37:50;;;;;;;6.35;3.20;;;8.30;99.90;;;;;;4196414;28;20072;-80
2022/01/04 00:39:52;;;;;;;4.97;2.47;;;8.30;99.90;;;;;;4198480;28;20072;-80
2022/01/04 00:41:54;;;;;;;9.77;2.42;;;8.30;99.90;;;;;;4194758;28;20072;-82
2022/01/04 00:43:56;;;;;;;5.55;2.70;;;8.30;99.90;;;;;;4194018;28;20049;-80
2022/01/04 00:45:59;;;;;;;9.98;3.40;;;8.30;99.90;;;;;;4193820;28;20146;-77
2022/01/04 00:50:05;;;;;;;4.85;2.67;;;8.30;99.90;;;;;;4199412;28;20540;-80
2022/01/04 00:52:14;;;;;;;6.60;3.13;;;8.30;99.90;;;;;;4196278;28;20072;-80
2022/01/04 00:54:16;;;;;;;6.43;2.80;;;8.30;99.90;;;;;;4197944;28;20071;-79
2022/01/04 00:56:18;;;;;;;5.55;3.05;;;8.30;99.90;;;;;;4194070;28;20076;-79
2022/01/04 00:58:20;;;;;;;6.00;3.00;;;8.30;99.90;;;;;;4198086;28;20072;-81
2022/01/04 01:00:22;;;;;;;6.07;3.28;;;8.30;99.90;;;;;;4198076;28;20695;-80
2022/01/04 01:02:24;;;;;;;7.47;3.30;;;8.30;99.90;;;;;;4188356;28;20081;-79
2022/01/04 01:04:26;;;;;;;6.30;3.22;;;8.30;99.90;;;;;;4187999;28;20059;-80
2022/01/04 01:06:28;;;;;;;6.30;3.35;;;8.30;99.90;;;;;;4197096;28;20157;-80
2022/01/04 01:08:31;;;;;;;6.38;2.92;;;8.30;99.90;;;;;;4197522;28;20412;-81
2022/01/04 01:12:37;;;;;;;4.18;2.65;;;8.30;99.90;;;;;;4196192;28;20051;-81
2022/01/04 01:14:39;;;;;;;4.75;2.58;;;8.30;99.90;;;;;;4197790;28;20567;-80
2022/01/04 01:16:41;;;;;;;5.97;2.70;;;8.20;99.90;;;;;;4197651;28;20118;-80
2022/01/04 01:18:43;;;;;;;8.15;2.85;;;8.20;99.90;;;;;;4181906;28;20085;-79
2022/01/04 01:20:47;;;;;;;5.35;2.67;;;8.20;99.90;;;;;;4181117;28;20529;-80
2022/01/04 01:22:49;;;;;;;5.57;2.70;;;8.30;99.90;;;;;;4181054;28;20049;-80
2022/01/04 01:24:51;;;;;;;4.47;2.50;;;8.30;99.90;;;;;;4181016;28;20084;-80
2022/01/04 01:26:53;;;;;;;7.30;2.92;;;8.20;99.90;;;;;;4190336;28;20048;-80
2022/01/04 01:28:56;;;;;;;6.55;2.50;;;8.20;99.90;;;;;;4196637;28;20080;-78
2022/01/04 01:30:58;;;;;;;5.60;2.67;;;8.20;99.90;;;;;;4196449;28;20076;-82
2022/01/04 01:33:00;;;;;;;4.85;2.50;;;8.30;99.90;;;;;;4196643;28;20075;-80
2022/01/04 01:35:02;;;;;;;12.38;2.55;;;8.30;99.90;;;;;;4213715;28;20048;-80
2022/01/04 01:37:04;;;;;;;6.10;3.20;;;8.30;99.90;;;;;;4197340;28;20048;-80
2022/01/04 01:39:07;;;;;;;6.60;2.60;;;8.30;99.90;;;;;;4193554;28;20091;-79
2022/01/04 01:41:09;;;;;;;4.75;2.22;;;8.30;99.90;;;;;;4195000;28;20099;-78
2022/01/04 01:43:11;;;;;;;4.38;2.15;;;8.30;99.90;;;;;;4196301;28;20540;-81
2022/01/04 01:45:16;;;;;;;7.10;2.55;;;8.30;99.90;;;;;;4196843;28;20667;-80
2022/01/04 01:47:18;;;;;;;6.05;2.25;;;8.30;99.90;;;;;;4181048;28;20073;-81
2022/01/04 01:49:20;;;;;;;6.53;2.20;;;8.30;99.90;;;;;;4180833;28;20045;-78
2022/01/04 01:51:23;;;;;;;4.05;2.55;;;8.30;99.90;;;;;;4180677;28;20132;-81
2022/01/04 01:53:25;;;;;;;5.97;2.33;;;8.30;99.90;;;;;;4183327;28;20152;-80
2022/01/04 01:55:28;;;;;;;4.55;2.40;;;8.30;99.90;;;;;;4197037;28;20068;-80
2022/01/04 01:57:29;;;;;;;5.20;2.58;;;8.30;99.90;;;;;;4195560;28;20532;-80
2022/01/04 01:59:31;;;;;;;3.83;2.63;;;8.30;99.90;;;;;;4192754;28;20048;-79
2022/01/04 02:01:34;;;;;;;4.75;2.83;;;8.40;99.90;;;;;;4197028;28;20051;-80
2022/01/04 02:03:36;;;;;;;7.40;2.33;;;8.40;99.90;;;;;;4183933;28;20064;-79
2022/01/04 02:05:39;;;;;;;5.38;2.88;;;8.40;99.90;;;;;;4180606;28;20085;-80
2022/01/04 02:07:43;;;;;;;7.00;2.40;;;8.40;99.90;;;;;;4211356;28;20044;-78
2022/01/04 02:09:54;;;;;;;4.60;2.22;;;8.40;99.90;;;;;;4196774;28;20102;-81
2022/01/04 02:11:57;;;;;;;3.70;2.15;;;8.40;99.90;;;;;;4195081;28;20507;-80
2022/01/04 02:14:00;;;;;;;4.95;2.50;;;8.40;99.90;;;;;;4187187;28;20049;-81
2022/01/04 02:16:02;;;;;;;14.35;2.40;;;8.40;99.90;;;;;;4180320;28;20076;-80
2022/01/04 02:18:06;;;;;;;3.70;1.95;;;8.40;99.90;;;;;;4193721;28;20036;-80
2022/01/04 02:20:09;;;;;;;2.97;1.52;;;8.40;99.90;;;;;;4196831;28;20100;-80
2022/01/04 02:22:11;;;;;;;6.57;1.95;;;8.40;99.90;;;;;;4195304;28;20059;-80
2022/01/04 02:24:13;;;;;;;6.43;2.10;;;8.40;99.90;;;;;;4184348;28;20504;-81
2022/01/04 02:26:15;;;;;;;3.92;1.55;;;8.40;99.90;;;;;;4180091;28;20077;-80
2022/01/04 02:28:20;;;;;;;3.20;1.60;;;8.40;99.90;;;;;;4180222;28;20080;-81
2022/01/04 02:30:22;;;;;;;2.90;1.58;;;8.40;99.90;;;;;;4184557;28;20052;-80
2022/01/04 02:32:24;;;;;;;6.85;2.30;;;8.40;99.90;;;;;;4196680;28;20470;-80
2022/01/04 02:34:26;;;;;;;3.50;1.52;;;8.40;99.90;;;;;;4196678;28;20048;-82
2022/01/04 02:36:28;;;;;;;6.00;1.83;;;8.40;99.90;;;;;;4196791;28;20056;-80
2022/01/04 02:38:30;;;;;;;8.10;1.98;;;8.40;99.90;;;;;;4189255;28;20073;-78
2022/01/04 02:40:32;;;;;;;3.47;1.70;;;8.40;99.90;;;;;;4179750;28;20057;-79
2022/01/04 02:42:34;;;;;;;3.72;1.60;;;8.40;99.90;;;;;;4180146;28;20064;-79
2022/01/04 02:44:36;;;;;;;4.18;1.40;;;8.40;99.90;;;;;;4180049;28;20049;-79
2022/01/04 02:46:38;;;;;;;5.90;1.63;;;8.40;99.90;;;;;;4179766;28;20092;-80
2022/01/04 02:48:42;;;;;;;7.25;1.70;;;8.40;99.90;;;;;;4191566;28;20056;-80
2022/01/04 02:50:44;;;;;;;6.47;1.88;;;8.40;99.90;;;;;;4181170;28;20594;-81
2022/01/04 02:52:46;;;;;;;3.35;1.33;;;8.40;99.90;;;;;;4180124;28;20536;-80
2022/01/04 02:54:48;;;;;;;5.65;1.42;;;8.50;99.90;;;;;;4180075;28;20052;-78
2022/01/04 02:56:50;;;;;;;7.82;1.55;;;8.40;99.90;;;;;;4178553;28;20140;-80
2022/01/04 02:58:52;;;;;;;7.53;1.35;;;8.50;99.90;;;;;;4195037;28;20060;-80
2022/01/04 03:00:54;;;;;;;9.57;1.58;;;8.50;99.90;;;;;;4196730;28;20051;-78
2022/01/04 03:02:56;;;;;;;7.80;1.30;;;8.50;99.90;;;;;;4192787;28;20530;-77
2022/01/04 03:04:58;;;;;;;5.20;1.10;;;8.50;99.90;;;;;;4188903;28;20475;-78
2022/01/04 03:07:02;;;;;;;3.33;1.20;;;8.50;99.90;;;;;;4195818;28;20569;-80
2022/01/04 03:09:05;;;;;;;7.13;1.20;;;8.50;99.90;;;;;;4196360;28;20069;-80
2022/01/04 03:11:08;;;;;;;2.28;1.13;;;8.50;99.90;;;;;;4194979;28;20123;-78
2022/01/04 03:13:10;;;;;;;10.48;1.30;;;8.50;99.90;;;;;;4196468;28;20114;-79
2022/01/04 03:15:13;;;;;;;2.33;1.23;;;8.50;99.90;;;;;;4194791;28;20045;-80
2022/01/04 03:17:15;;;;;;;5.43;1.95;;;8.60;99.90;;;;;;4180106;28;20049;-79
2022/01/04 03:19:18;;;;;;;3.75;1.17;;;8.50;99.90;;;;;;4179995;28;20064;-80
2022/01/04 03:21:20;;;;;;;3.70;1.10;;;8.60;99.90;;;;;;4179699;28;20053;-80
2022/01/04 03:23:22;;;;;;;8.68;1.30;;;8.50;99.90;;;;;;4183144;28;20083;-77
2022/01/04 03:25:24;;;;;;;6.60;1.55;;;8.60;99.90;;;;;;4196296;28;20501;-80
2022/01/04 03:27:26;;;;;;;3.85;0.93;;;8.60;99.90;;;;;;4179313;28;20560;-79
2022/01/04 03:29:28;;;;;;;5.93;1.30;;;8.60;99.90;;;;;;4180088;28;20143;-78
2022/01/04 03:31:31;;;;;;;11.25;1.25;;;8.50;99.90;;;;;;4182645;28;20059;-79
2022/01/04 03:33:34;;;;;;;9.20;1.08;;;8.50;99.90;;;;;;4179721;28;20064;-78
2022/01/04 03:35:36;;;;;;;8.75;1.00;;;8.60;99.90;;;;;;4182028;28;20420;-77
2022/01/04 03:37:38;;;;;;;4.40;1.10;;;8.60;99.90;;;;;;4179802;28;20111;-79
2022/01/04 03:39:40;;;;;;;11.55;1.27;;;8.50;99.90;;;;;;4179785;28;20065;-81
2022/01/04 03:41:44;;;;;;;3.13;0.90;;;8.60;99.90;;;;;;4179654;28;20069;-78
2022/01/04 03:43:46;;;;;;;7.20;1.02;;;8.60;99.90;;;;;;4188080;28;20081;-78
2022/01/04 03:45:49;;;;;;;4.50;0.55;;;8.60;99.90;;;;;;4191105;28;20126;-79
2022/01/04 03:47:51;;;;;;;3.65;0.70;;;8.60;99.90;;;;;;4195559;28;20049;-79
2022/01/04 03:49:53;;;;;;;6.63;0.85;;;8.60;99.90;;;;;;4179732;28;20077;-80
2022/01/04 03:51:55;;;;;;;4.32;0.95;;;8.60;99.90;;;;;;4180923;28;20045;-79
2022/01/04 03:53:57;;;;;;;8.35;1.00;;;8.60;99.90;;;;;;4182790;28;20041;-79
2022/01/04 03:55:59;;;;;;;5.03;1.00;;;8.60;99.90;;;;;;4183154;28;20076;-80
2022/01/04 03:58:01;;;;;;;8.55;1.02;;;8.60;99.90;;;;;;4199141;28;20083;-81
2022/01/04 04:00:08;;;;;;;7.55;1.92;;;8.60;99.90;;;;;;4199396;28;20143;-79
2022/01/04 04:02:10;;;;;;;10.95;1.27;;;8.60;99.90;;;;;;4199225;28;20086;-80
2022/01/04 04:04:13;;;;;;;17.73;1.20;;;8.60;99.90;;;;;;4195410;28;20041;-80
2022/01/04 04:06:15;;;;;;;14.00;1.27;;;8.60;99.90;;;;;;4192092;28;20135;-80
2022/01/04 04:08:17;;;;;;;12.27;1.20;;;8.60;99.90;;;;;;4197660;28;20041;-78
2022/01/04 04:10:19;;;;;;;8.70;1.33;;;8.60;99.90;;;;;;4190005;28;20103;-78
2022/01/04 04:12:23;;;;;;;16.30;1.45;;;8.60;99.90;;;;;;4188837;28;20044;-77
2022/01/04 04:14:24;;;;;;;13.25;1.48;;;8.60;99.90;;;;;;4198942;28;20044;-81
2022/01/04 04:16:45;;;;;;;13.73;1.90;;;8.70;99.90;;;;;;4198934;28;20056;-77
2022/01/04 04:18:47;;;;;;;15.45;1.50;;;8.70;99.90;;;;;;4192414;28;20191;-77
2022/01/04 04:20:49;;;;;;;14.95;1.70;;;8.70;99.90;;;;;;4182196;28;20084;-78
2022/01/04 04:22:51;;;;;;;16.65;1.77;;;8.70;99.90;;;;;;4183142;28;20048;-79
2022/01/04 04:24:52;;;;;;;11.77;1.63;;;8.70;99.90;;;;;;4184474;28;20061;-79
2022/01/04 04:26:54;;;;;;;20.70;1.83;;;8.70;99.90;;;;;;4198460;28;20052;-79
2022/01/04 04:28:56;;;;;;;14.50;1.58;;;8.70;99.90;;;;;;4198602;28;20084;-80
2022/01/04 04:30:59;;;;;;;17.58;1.95;;;8.70;99.90;;;;;;4198906;28;20053;-77
2022/01/04 04:33:01;;;;;;;11.68;1.85;;;8.70;99.90;;;;;;4197953;28;20057;-79
2022/01/04 04:35:04;;;;;;;10.88;2.00;;;8.70;99.90;;;;;;4197927;28;20079;-78
2022/01/04 04:37:06;;;;;;;9.48;2.30;;;8.80;99.90;;;;;;4182079;28;20072;-85
2022/01/04 04:39:08;;;;;;;17.75;3.00;;;8.80;99.90;;;;;;4188617;28;20076;-84
2022/01/04 04:41:10;;;;;;;11.82;3.33;;;8.80;99.90;;;;;;4183077;28;20521;-81
2022/01/04 04:43:12;;;;;;;21.55;3.30;;;8.80;99.90;;;;;;4197539;28;20048;-79
2022/01/04 04:45:13;;;;;;;33.33;4.22;;;8.80;99.90;;;;;;4181731;28;20080;-77
2022/01/04 04:47:16;;;;;;;13.07;3.33;;;8.80;99.90;;;;;;4181822;28;20536;-78
2022/01/04 04:49:17;;;;;;;20.63;4.20;;;8.80;99.90;;;;;;4182989;28;20128;-77
2022/01/04 04:51:19;;;;;;;23.27;4.00;;;8.80;99.90;;;;;;4193778;28;20545;-78
2022/01/04 04:53:21;;;;;;;23.33;4.43;;;8.80;99.90;;;;;;4193803;28;20048;-79
2022/01/04 04:55:23;;;;;;;25.80;4.10;;;8.80;99.90;;;;;;4187808;28;20056;-81
2022/01/04 04:57:25;;;;;;;24.77;3.78;;;8.80;99.90;;;;;;4197984;28;20056;-78
2022/01/04 04:59:27;;;;;;;17.90;3.78;;;8.80;99.90;;;;;;4197923;28;20044;-77
2022/01/04 05:01:29;;;;;;;22.73;4.47;;;8.80;99.90;;;;;;4196813;28;20049;-80
2022/01/04 05:03:32;;;;;;;34.45;4.22;;;8.90;99.90;;;;;;4200176;28;20454;-86
2022/01/04 05:05:33;;;;;;;25.23;4.47;;;8.90;99.90;;;;;;4198659;28;20049;-83
2022/01/04 05:07:36;;;;;;;26.70;4.68;;;8.90;99.90;;;;;;4183319;28;20474;-80
2022/01/04 05:09:40;;;;;;;31.98;5.82;;;8.90;99.90;;;;;;4189867;28;20045;-79
2022/01/04 05:11:42;;;;;;;31.23;5.10;;;8.90;99.90;;;;;;4195488;28;20044;-78
2022/01/04 05:13:44;;;;;;;18.63;4.72;;;9.00;99.90;;;;;;4181829;28;20080;-77
2022/01/04 05:15:46;;;;;;;16.75;5.00;;;9.00;99.90;;;;;;4198206;28;20068;-77
2022/01/04 05:17:48;;;;;;;19.80;5.35;;;9.00;99.90;;;;;;4198044;28;20052;-79
2022/01/04 05:19:50;;;;;;;24.63;5.63;;;9.00;99.90;;;;;;4182864;28;20440;-80
2022/01/04 05:21:51;;;;;;;26.67;6.30;;;9.00;99.90;;;;;;4194594;28;20090;-78
2022/01/04 05:23:54;;;;;;;27.13;6.07;;;9.00;99.90;;;;;;4196830;28;20052;-80
2022/01/04 05:25:56;;;;;;;30.77;6.45;;;9.00;99.90;;;;;;4181033;28;20041;-80
2022/01/04 05:27:58;;;;;;;25.48;5.78;;;9.00;99.90;;;;;;4189430;28;20134;-78
2022/01/04 05:30:00;;;;;;;22.17;6.22;;;9.00;99.90;;;;;;4186075;28;20087;-78
2022/01/04 05:32:02;;;;;;;24.55;6.65;;;9.00;99.90;;;;;;4181479;28;20053;-78
2022/01/04 05:34:04;;;;;;;19.10;7.03;;;9.00;99.90;;;;;;4181409;28;20077;-81
2022/01/04 05:36:06;;;;;;;26.52;7.15;;;9.00;99.90;;;;;;4191657;28;20072;-78
2022/01/04 05:38:08;;;;;;;34.40;6.90;;;9.00;99.90;;;;;;4184441;28;20513;-79
2022/01/04 05:40:11;;;;;;;25.90;7.28;;;9.00;99.90;;;;;;4197356;28;20045;-78
2022/01/04 05:42:13;;;;;;;35.78;7.30;;;9.00;99.90;;;;;;4197588;28;20139;-78
2022/01/04 05:44:15;;;;;;;37.20;7.30;;;9.10;99.90;;;;;;4192011;28;20077;-77
2022/01/04 05:46:16;;;;;;;37.25;8.48;;;9.10;99.90;;;;;;4197221;28;20055;-77
2022/01/04 05:48:20;;;;;;;26.50;6.95;;;9.10;99.90;;;;;;4197439;28;20056;-77
2022/01/04 05:50:23;;;;;;;33.55;6.90;;;9.10;99.90;;;;;;4191656;28;20478;-78
2022/01/04 05:52:25;;;;;;;35.53;6.95;;;9.10;99.90;;;;;;4187866;28;20049;-78
2022/01/04 05:54:26;;;;;;;30.23;7.25;;;9.10;99.90;;;;;;4180470;28;20080;-77
2022/01/04 05:56:28;;;;;;;23.83;6.97;;;9.10;99.90;;;;;;4196064;28;20496;-78
2022/01/04 05:58:30;;;;;;;30.92;6.93;;;9.10;99.90;;;;;;4197255;28;20068;-80
2022/01/04 06:00:32;;;;;;;17.90;6.57;;;9.10;99.90;;;;;;4193756;28;20068;-78
2022/01/04 06:02:35;;;;;;;27.55;6.93;;;9.10;99.90;;;;;;4196541;28;20099;-78
2022/01/04 06:04:37;;;;;;;23.30;6.75;;;9.10;99.90;;;;;;4197203;28;20142;-78
2022/01/04 06:06:41;;;;;;;23.65;5.88;;;9.10;99.90;;;;;;4193280;28;20076;-78
2022/01/04 06:08:44;;;;;;;41.42;6.88;;;9.10;99.90;;;;;;4190308;28;20048;-78
2022/01/04 06:10:51;;;;;;;26.73;6.13;;;9.10;99.90;;;;;;4194936;28;20523;-78
2022/01/04 06:15:01;;;;;;;32.05;7.20;;;9.10;99.90;;;;;;4197559;28;20051;-78
2022/01/04 06:17:07;;;;;;;28.15;7.18;;;9.10;99.90;;;;;;4196969;28;20052;-78
2022/01/04 06:19:09;;;;;;;34.72;6.50;;;9.10;99.90;;;;;;4190060;28;20068;-78
2022/01/04 06:21:11;;;;;;;27.75;7.43;;;9.10;99.90;;;;;;4180236;28;20081;-78
2022/01/04 06:23:13;;;;;;;25.95;7.15;;;9.10;99.90;;;;;;4180708;28;20787;-78
2022/01/04 06:25:17;;;;;;;38.38;7.30;;;9.10;99.90;;;;;;4179978;28;20075;-79
2022/01/04 06:27:19;;;;;;;29.73;7.05;;;9.10;99.90;;;;;;4179753;28;20080;-78
2022/01/04 06:29:22;;;;;;;29.77;6.88;;;9.10;99.90;;;;;;4180223;28;20128;-79
2022/01/04 06:31:26;;;;;;;27.08;6.97;;;9.10;99.90;;;;;;4179266;28;20087;-79
2022/01/04 06:33:28;;;;;;;41.60;8.85;;;9.10;99.90;;;;;;4188857;28;20123;-78
2022/01/04 06:35:33;;;;;;;28.50;7.38;;;9.10;99.90;;;;;;4180259;28;20079;-78
2022/01/04 06:37:36;;;;;;;33.47;7.95;;;9.10;99.90;;;;;;4182356;28;20123;-77
2022/01/04 06:39:38;;;;;;;32.38;8.07;;;9.10;99.90;;;;;;4192960;28;20050;-78
2022/01/04 06:41:40;;;;;;;36.67;7.28;;;9.20;99.90;;;;;;4180344;28;20659;-78
2022/01/04 06:43:42;;;;;;;22.75;6.72;;;9.20;99.90;;;;;;4180180;28;20049;-78
2022/01/04 06:45:44;;;;;;;23.10;6.72;;;9.20;99.90;;;;;;4179630;28;20076;-79
2022/01/04 06:47:46;;;;;;;24.58;7.45;;;9.20;99.90;;;;;;4179536;28;20055;-77
2022/01/04 06:49:48;;;;;;;23.48;6.40;;;9.20;99.90;;;;;;4180141;28;20509;-78
2022/01/04 06:51:50;;;;;;;35.35;7.13;;;9.20;99.90;;;;;;4187688;28;20052;-78
2022/01/04 06:53:52;;;;;;;37.60;6.75;;;9.10;99.90;;;;;;4183940;28;20075;-79
2022/01/04 06:55:54;;;;;;;30.23;5.85;;;9.10;99.90;;;;;;4179988;28;20053;-78
2022/01/04 06:57:56;;;;;;;36.50;6.47;;;9.10;99.90;;;;;;4182863;28;20208;-77
2022/01/04 06:59:58;;;;;;;42.55;7.15;;;9.10;99.90;;;;;;4190348;28;20089;-78
2022/01/04 07:02:00;;;;;;;36.95;7.32;;;9.10;99.90;;;;;;4179503;28;20045;-78
2022/01/04 07:04:04;;;;;;;33.17;6.43;;;9.10;99.90;;;;;;4193876;28;20052;-79
2022/01/04 07:06:07;;;;;;;23.38;6.03;;;9.10;99.90;;;;;;4196155;28;20059;-78
2022/01/04 07:08:08;;;;;;;35.75;6.13;;;9.10;99.90;;;;;;4192408;28;20080;-78
2022/01/04 07:10:10;;;;;;;35.65;6.18;;;9.10;99.90;;;;;;4193554;28;20044;-78
2022/01/04 07:12:12;;;;;;;41.15;6.32;;;9.00;99.90;;;;;;4187164;28;20094;-78
2022/01/04 07:14:14;;;;;;;40.35;6.75;;;9.00;99.90;;;;;;4180668;28;20509;-78
2022/01/04 07:16:17;;;;;;;26.50;4.95;;;9.00;99.90;;;;;;4178372;28;20594;-79
2022/01/04 07:18:20;;;;;;;38.70;5.30;;;9.00;99.90;;;;;;4195426;28;20056;-78
2022/01/04 07:20:22;;;;;;;23.70;4.18;;;9.00;99.90;;;;;;4180436;28;20108;-84
2022/01/04 07:22:25;;;;;;;31.55;5.70;;;9.00;99.90;;;;;;4181872;28;20445;-85
2022/01/04 07:24:27;;;;;;;26.88;4.88;;;9.10;99.90;;;;;;4183902;28;20151;-81
2022/01/04 07:26:29;;;;;;;29.63;5.90;;;9.10;99.90;;;;;;4179702;28;20080;-78
2022/01/04 07:28:31;;;;;;;41.25;5.72;;;9.10;99.90;;;;;;4182378;28;20049;-78
2022/01/04 07:30:40;;;;;;;41.47;8.07;;;9.20;99.90;;;;;;4188533;28;20044;-78
2022/01/04 07:32:42;;;;;;;41.00;5.68;;;9.20;99.90;;;;;;4195541;28;20098;-78
2022/01/04 07:34:44;;;;;;;32.28;4.90;;;9.20;99.90;;;;;;4183080;28;20085;-78
2022/01/04 07:36:47;;;;;;;43.22;7.93;;;9.20;99.90;;;;;;4182544;28;20045;-78
2022/01/04 07:38:49;;;;;;;38.88;7.25;;;9.10;99.90;;;;;;4192249;28;20484;-78
2022/01/04 07:40:51;;;;;;;31.42;5.15;;;9.10;99.90;;;;;;4184681;28;20087;-78
2022/01/04 07:42:57;;;;;;;29.83;4.90;;;9.10;99.90;;;;;;4182815;28;20098;-78
2022/01/04 07:44:59;;;;;;;39.30;5.53;;;9.10;99.90;;;;;;4188754;28;20503;-80
2022/01/04 07:47:01;;;;;;;45.33;4.18;;;9.10;99.90;;;;;;4197638;28;20048;-79
2022/01/04 07:49:03;;;;;;;29.25;4.13;;;9.10;99.90;;;;;;4199087;28;20068;-78
2022/01/04 07:51:05;;;;;;;37.17;5.18;;;9.10;99.90;;;;;;4199250;28;20076;-78
2022/01/04 07:53:07;;;;;;;31.98;4.10;;;9.10;99.90;;;;;;4197014;28;20055;-77
2022/01/04 07:55:09;;;;;;;38.38;4.57;;;9.10;99.90;;;;;;4188384;28;20119;-78
2022/01/04 07:57:11;;;;;;;24.92;3.95;;;9.10;99.90;;;;;;4182600;28;20103;-78
2022/01/04 07:59:14;;;;;;;38.50;5.60;;;9.00;99.90;;;;;;4182662;28;20455;-78
2022/01/04 08:01:16;;;;;;;24.65;2.80;;;9.00;99.90;;;;;;4193265;28;20063;-78
2022/01/04 08:03:19;;;;;;;31.38;4.00;;;9.00;99.90;;;;;;4183956;28;20065;-78
2022/01/04 08:05:22;;;;;;;41.85;4.55;;;9.00;99.90;;;;;;4182476;28;20094;-79
2022/01/04 08:07:24;;;;;;;23.95;3.60;;;9.00;99.90;;;;;;4182179;28;20068;-79
2022/01/04 08:09:26;;;;;;;35.85;3.63;;;9.00;99.90;;;;;;4186936;28;20045;-78
2022/01/04 08:11:28;;;;;;;25.48;4.05;;;8.90;99.90;;;;;;4185257;28;20056;-78
2022/01/04 08:13:31;;;;;;;31.85;3.45;;;8.90;99.90;;;;;;4198782;28;20045;-78
2022/01/04 08:15:32;;;;;;;20.27;3.78;;;8.90;99.90;;;;;;4199083;28;20405;-78
2022/01/04 08:17:36;;;;;;;25.70;3.30;;;8.90;99.90;;;;;;4198231;28;20044;-86
2022/01/04 08:19:38;;;;;;;33.17;3.35;;;8.90;99.90;;;;;;4184398;28;20762;-86
2022/01/04 08:21:40;;;;;;;33.28;3.63;;;8.90;99.90;;;;;;4198999;28;20053;-79
2022/01/04 08:23:42;;;;;;;29.13;3.75;;;8.90;99.90;;;;;;4199311;28;20048;-77
2022/01/04 08:25:43;;;;;;;28.67;3.33;;;8.90;99.90;;;;;;4197600;28;20103;-79
2022/01/04 08:27:46;;;;;;;32.78;3.95;;;8.90;99.90;;;;;;4183870;28;20087;-78
2022/01/04 08:29:48;;;;;;;36.13;3.53;;;8.80;99.90;;;;;;4187626;28;20045;-78
2022/01/04 08:31:50;;;;;;;31.50;4.35;;;8.80;99.90;;;;;;4198514;28;20080;-78
2022/01/04 08:33:53;;;;;;;42.30;3.90;;;8.80;99.90;;;;;;4196668;28;20331;-78
2022/01/04 08:35:55;;;;;;;36.83;3.75;;;8.80;99.90;;;;;;4198597;28;20702;-80
2022/01/04 08:37:57;;;;;;;30.65;3.30;;;8.80;99.90;;;;;;4198996;28;20079;-79
2022/01/04 08:39:58;;;;;;;28.05;3.10;;;8.90;99.90;;;;;;4194286;28;20127;-78
2022/01/04 08:42:02;;;;;;;34.05;3.33;;;8.90;99.90;;;;;;4187232;28;20076;-78
2022/01/04 08:44:04;;;;;;;31.10;3.47;;;9.00;99.90;;;;;;4182371;28;20151;-79
2022/01/04 08:46:06;;;;;;;39.10;2.83;;;9.00;99.90;;;;;;4193870;28;20049;-78
2022/01/04 08:48:08;;;;;;;30.58;3.53;;;9.00;99.90;;;;;;4182527;28;20479;-77
2022/01/04 08:50:12;;;;;;;34.08;3.67;;;9.00;99.90;;;;;;4187445;28;20040;-78
2022/01/04 08:52:13;;;;;;;30.88;2.90;;;9.10;99.90;;;;;;4190328;28;20064;-77
2022/01/04 08:54:15;;;;;;;19.13;2.58;;;9.10;99.90;;;;;;4181809;28;20049;-77
2022/01/04 08:56:18;;;;;;;29.58;3.15;;;9.10;99.90;;;;;;4181809;28;20132;-79
2022/01/04 08:58:20;;;;;;;20.85;3.45;;;9.10;99.90;;;;;;4187474;28;20174;-78
2022/01/04 09:00:22;;;;;;;31.25;3.60;;;9.10;99.90;;;;;;4194362;28;20080;-78
2022/01/04 09:02:24;;;;;;;32.13;4.22;;;9.10;99.90;;;;;;4198241;28;20052;-78
2022/01/04 09:04:26;;;;;;;26.70;3.90;;;9.10;99.90;;;;;;4193677;28;20132;-79
2022/01/04 09:06:30;;;;;;;28.85;3.72;;;9.20;99.90;;;;;;4185874;28;20500;-79
2022/01/04 09:08:33;;;;;;;38.72;3.22;;;9.20;99.90;;;;;;4185905;28;20044;-78
2022/01/04 09:10:35;;;;;;;25.45;3.10;;;9.20;99.90;;;;;;4190113;28;20080;-78
2022/01/04 09:13:01;;;;;;;23.55;3.22;;;9.30;99.90;;;;;;4196565;28;20048;-78
2022/01/04 09:15:26;;;;;;;30.08;4.03;;;9.30;99.90;;;;;;4189473;28;20079;-80
2022/01/04 09:19:47;;;;;;;26.00;2.78;;;9.30;99.90;;;;;;4182558;28;20079;-78
2022/01/04 09:21:49;;;;;;;23.17;2.53;;;9.30;99.90;;;;;;4197095;28;20041;-78
2022/01/04 09:23:53;;;;;;;17.67;3.15;;;9.30;99.90;;;;;;4181320;28;20057;-79
2022/01/04 09:25:55;;;;;;;37.08;3.38;;;9.30;99.90;;;;;;4182803;28;20064;-85
2022/01/04 09:27:57;;;;;;;23.67;3.25;;;9.30;99.90;;;;;;4197915;28;20056;-87
2022/01/04 09:30:03;;;;;;;39.67;4.80;;;9.30;99.90;;;;;;4184352;28;20045;-87
2022/01/04 09:32:06;;;;;;;29.75;3.22;;;9.30;99.90;;;;;;4184067;28;20109;-85
2022/01/04 09:34:08;;;;;;;38.00;3.92;;;9.30;99.90;;;;;;4186986;28;20040;-78
2022/01/04 09:36:10;;;;;;;53.20;5.53;;;9.40;99.90;;;;;;4189418;28;20428;-78
2022/01/04 09:38:12;;;;;;;45.78;4.07;;;9.30;99.90;;;;;;4181521;28;20052;-79
2022/01/04 09:40:14;;;;;;;42.83;3.85;;;9.30;99.90;;;;;;4181024;28;20079;-78
2022/01/04 09:42:16;;;;;;;49.03;4.22;;;9.40;99.90;;;;;;4181012;28;20107;-78
2022/01/04 09:44:18;;;;;;;34.20;3.20;;;9.40;99.90;;;;;;4181242;28;20058;-78
2022/01/04 09:46:20;;;;;;;26.75;3.70;;;9.20;99.90;;;;;;4197238;28;20052;-78
2022/01/04 09:48:22;;;;;;;34.58;4.05;;;9.20;99.90;;;;;;4181322;28;20099;-86
2022/01/04 09:50:24;;;;;;;34.95;4.35;;;9.20;99.90;;;;;;4183563;28;20711;-84
2022/01/04 09:52:27;;;;;;;37.80;4.38;;;9.30;99.90;;;;;;4213687;28;20044;-80
2022/01/04 09:54:29;;;;;;;32.25;3.80;;;9.30;99.90;;;;;;4197722;28;20072;-79
2022/01/04 09:56:32;;;;;;;34.55;4.20;;;9.30;99.90;;;;;;4197480;28;20052;-78
2022/01/04 09:58:34;;;;;;;31.63;4.18;;;9.30;99.90;;;;;;4195978;28;20087;-78
2022/01/04 10:00:36;;;;;;;44.53;4.38;;;9.30;99.90;;;;;;4180583;28;20151;-80
2022/01/04 10:02:38;;;;;;;37.60;5.03;;;9.40;99.90;;;;;;4180653;28;20068;-78
2022/01/04 10:04:41;;;;;;;32.60;3.95;;;9.30;99.90;;;;;;4180601;28;20045;-78
2022/01/04 10:07:02;;;;;;;33.10;4.15;;;9.40;99.90;;;;;;4194490;28;20420;-80
2022/01/04 10:09:12;;;;;;;33.70;4.75;;;9.40;99.90;;;;;;4180621;28;20045;-77
2022/01/04 10:11:14;;;;;;;26.70;3.10;;;9.40;99.90;;;;;;4192809;28;20735;-78
2022/01/04 10:13:16;;;;;;;33.67;4.43;;;9.40;99.90;;;;;;4182196;28;20532;-78
2022/01/04 10:15:32;;;;;;;28.10;3.67;;;9.30;99.90;;;;;;4195792;28;20590;-78
2022/01/04 10:17:35;;;;;;;;;;;9.30;99.90;;;;;;4180504;28;20045;-78
2022/01/04 10:19:44;;;;;;;25.63;3.25;;;9.30;99.90;;;;;;4180607;28;19995;-77
2022/01/04 10:21:46;;;;;;;27.95;3.55;;;9.20;99.90;;;;;;4181493;28;20049;-77
2022/01/04 10:23:54;;;;;;;37.17;3.75;;;9.10;99.90;;;;;;4190427;28;20135;-79
2022/01/04 10:26:05;;;;;;;28.15;3.35;;;9.20;99.90;;;;;;4191365;28;20075;-79
2022/01/04 10:28:07;;;;;;;24.48;3.10;;;9.20;99.90;;;;;;4196897;28;20127;-77
2022/01/04 10:30:33;;;;;;;23.25;3.17;;;9.20;99.90;;;;;;4196643;28;20503;-79
2022/01/04 10:32:47;;;;;;;22.92;3.80;;;9.20;99.90;;;;;;4190715;28;20098;-79
2022/01/04 10:34:49;;;;;;;23.00;4.20;;;9.20;99.90;;;;;;4186789;28;20044;-79
2022/01/04 10:36:51;;;;;;;20.60;3.13;;;9.20;99.90;;;;;;4196445;28;20131;-79
2022/01/04 10:38:53;;;;;;;25.73;2.70;;;9.20;99.90;;;;;;4196658;28;20519;-80
2022/01/04 10:41:03;;;;;;;22.17;3.22;;;9.20;99.90;;;;;;4194663;28;20047;-80
2022/01/04 10:43:15;;;;;;;26.65;3.08;;;9.30;99.90;;;;;;4180013;28;20080;-79
2022/01/04 10:45:31;;;;;;;34.67;3.33;;;9.30;99.90;;;;;;4196717;28;20535;-78
2022/01/04 10:47:33;;;;;;;29.92;3.42;;;9.20;99.90;;;;;;4192639;28;20040;-79
2022/01/04 10:49:41;;;;;;;22.02;3.05;;;9.30;99.90;;;;;;4196176;28;20083;-80
2022/01/04 10:51:44;;;;;;;31.02;3.47;;;9.20;99.90;;;;;;4180382;28;20064;-78